sensor_id;sensor_type;location;lat;lon;timestamp;temperature;humidity
4293;DHT22;2160;51.172;6.808;2023-03-24T00:00:17;15.00;99.90
4293;DHT22;2160;51.172;6.808;2023-03-24T05:02:19;15.60;99.90
4293;DHT22;2160;51.172;6.808;2023-03-24T05:05:10;15.60;99.90
4293;DHT22;2160;51.172;6.808;2023-03-24T05:07:44;15.50;99.90
4293;DHT22;2160;51.172;6.808;2023-03-24T05:10:14;15.50;99.90
4293;DHT22;2160;51.172;6.808;2023-03-24T05:12:56;15.50;99.90
4293;DHT22;2160;51.172;6.808;2023-03-24T05:15:47;15.60;99.90
4293;DHT22;2160;51.172;6.808;2023-03-24T05:18:41;15.50;99.90
4293;DHT22;2160;51.172;6.808;2023-03-24T05:21:25;15.50;99.90
4293;DHT22;2160;51.172;6.808;2023-03-24T05:23:53;15.40;99.90
4293;DHT22;2160;51.172;6.808;2023-03-24T05:26:34;15.20;99.90
4293;DHT22;2160;51.172;6.808;2023-03-24T05:29:20;14.90;99.90
4293;DHT22;2160;51.172;6.808;2023-03-24T05:32:00;14.60;99.90
4293;DHT22;2160;51.172;6.808;2023-03-24T05:34:42;14.90;99.90
4293;DHT22;2160;51.172;6.808;2023-03-24T05:37:32;14.80;99.90
4293;DHT22;2160;51.172;6.808;2023-03-24T05:40:14;14.80;99.90
4293;DHT22;2160;51.172;6.808;2023-03-24T05:43:00;14.80;99.90
4293;DHT22;2160;51.172;6.808;2023-03-24T05:45:35;14.80;99.90
4293;DHT22;2160;51.172;6.808;2023-03-24T05:48:05;14.90;99.90
4293;DHT22;2160;51.172;6.808;2023-03-24T05:51:09;14.90;99.90
4293;DHT22;2160;51.172;6.808;2023-03-24T05:53:37;14.60;99.90
4293;DHT22;2160;51.172;6.808;2023-03-24T05:56:12;14.30;99.90
4293;DHT22;2160;51.172;6.808;2023-03-24T05:59:01;14.20;99.90
4293;DHT22;2160;51.172;6.808;2023-03-24T06:02:12;14.00;99.90
4293;DHT22;2160;51.172;6.808;2023-03-24T06:05:09;13.90;99.90
4293;DHT22;2160;51.172;6.808;2023-03-24T06:07:42;13.70;99.90
4293;DHT22;2160;51.172;6.808;2023-03-24T06:14:20;13.50;99.90
4293;DHT22;2160;51.172;6.808;2023-03-24T06:17:21;13.50;99.90
4293;DHT22;2160;51.172;6.808;2023-03-24T06:19:57;13.50;99.90
4293;DHT22;2160;51.172;6.808;2023-03-24T06:22:54;13.40;99.90
4293;DHT22;2160;51.172;6.808;2023-03-24T06:25:39;13.20;99.90
4293;DHT22;2160;51.172;6.808;2023-03-24T06:28:22;13.20;99.90
4293;DHT22;2160;51.172;6.808;2023-03-24T06:30:57;13.60;99.90
4293;DHT22;2160;51.172;6.808;2023-03-24T06:33:53;13.50;99.90
4293;DHT22;2160;51.172;6.808;2023-03-24T06:36:41;13.40;99.90
4293;DHT22;2160;51.172;6.808;2023-03-24T06:39:31;13.40;99.90
4293;DHT22;2160;51.172;6.808;2023-03-24T06:42:40;13.40;99.90
4293;DHT22;2160;51.172;6.808;2023-03-24T06:45:32;13.50;99.90
4293;DHT22;2160;51.172;6.808;2023-03-24T06:48:23;13.30;99.90
4293;DHT22;2160;51.172;6.808;2023-03-24T06:51:37;13.40;99.90
4293;DHT22;2160;51.172;6.808;2023-03-24T06:54:37;13.50;99.90
4293;DHT22;2160;51.172;6.808;2023-03-24T06:57:34;13.50;99.90
4293;DHT22;2160;51.172;6.808;2023-03-24T07:00:28;13.50;99.90
4293;DHT22;2160;51.172;6.808;2023-03-24T07:03:24;13.70;99.90
4293;DHT22;2160;51.172;6.808;2023-03-24T07:06:22;13.80;99.90
4293;DHT22;2160;51.172;6.808;2023-03-24T07:09:04;14.10;99.90
4293;DHT22;2160;51.172;6.808;2023-03-24T07:11:46;14.10;99.90
4293;DHT22;2160;51.172;6.808;2023-03-24T07:17:18;14.10;99.90
4293;DHT22;2160;51.172;6.808;2023-03-24T07:20:11;14.10;99.90
4293;DHT22;2160;51.172;6.808;2023-03-24T07:22:58;14.00;99.90
4293;DHT22;2160;51.172;6.808;2023-03-24T07:26:36;14.10;99.90
4293;DHT22;2160;51.172;6.808;2023-03-24T07:29:25;14.00;99.90
4293;DHT22;2160;51.172;6.808;2023-03-24T07:32:33;13.90;99.90
4293;DHT22;2160;51.172;6.808;2023-03-24T07:35:23;14.00;99.90
4293;DHT22;2160;51.172;6.808;2023-03-24T07:38:01;14.10;99.90
4293;DHT22;2160;51.172;6.808;2023-03-24T07:40:56;13.90;99.90
4293;DHT22;2160;51.172;6.808;2023-03-24T07:43:45;14.00;99.90
4293;DHT22;2160;51.172;6.808;2023-03-24T07:46:34;14.00;99.90
4293;DHT22;2160;51.172;6.808;2023-03-24T07:49:10;13.80;99.90
4293;DHT22;2160;51.172;6.808;2023-03-24T07:51:40;13.80;99.90
4293;DHT22;2160;51.172;6.808;2023-03-24T07:54:35;13.90;99.90
4293;DHT22;2160;51.172;6.808;2023-03-24T07:57:03;13.60;99.90
4293;DHT22;2160;51.172;6.808;2023-03-24T07:59:33;13.60;99.90
4293;DHT22;2160;51.172;6.808;2023-03-24T08:02:20;13.60;99.90
4293;DHT22;2160;51.172;6.808;2023-03-24T08:05:09;13.70;99.90
4293;DHT22;2160;51.172;6.808;2023-03-24T08:08:04;13.80;99.90
4293;DHT22;2160;51.172;6.808;2023-03-24T08:10:36;13.80;99.90
4293;DHT22;2160;51.172;6.808;2023-03-24T08:14:08;13.80;99.90
4293;DHT22;2160;51.172;6.808;2023-03-24T08:20:31;14.00;99.90
4293;DHT22;2160;51.172;6.808;2023-03-24T08:23:12;14.20;99.90
4293;DHT22;2160;51.172;6.808;2023-03-24T08:25:47;14.30;99.90
4293;DHT22;2160;51.172;6.808;2023-03-24T08:28:20;14.40;99.90
4293;DHT22;2160;51.172;6.808;2023-03-24T08:30:48;14.30;99.90
4293;DHT22;2160;51.172;6.808;2023-03-24T08:33:25;14.20;99.90
4293;DHT22;2160;51.172;6.808;2023-03-24T08:35:55;14.30;99.90
4293;DHT22;2160;51.172;6.808;2023-03-24T08:38:24;14.20;99.90
4293;DHT22;2160;51.172;6.808;2023-03-24T08:40:56;14.30;99.90
4293;DHT22;2160;51.172;6.808;2023-03-24T08:43:29;14.20;99.90
4293;DHT22;2160;51.172;6.808;2023-03-24T08:46:00;14.30;99.90
4293;DHT22;2160;51.172;6.808;2023-03-24T08:48:50;14.20;99.90
4293;DHT22;2160;51.172;6.808;2023-03-24T08:51:21;14.30;99.90
4293;DHT22;2160;51.172;6.808;2023-03-24T08:53:54;14.40;99.90
4293;DHT22;2160;51.172;6.808;2023-03-24T08:56:26;14.30;99.90
4293;DHT22;2160;51.172;6.808;2023-03-24T08:59:06;14.30;99.90
4293;DHT22;2160;51.172;6.808;2023-03-24T09:01:36;14.40;99.90
4293;DHT22;2160;51.172;6.808;2023-03-24T09:04:04;14.50;99.90
4293;DHT22;2160;51.172;6.808;2023-03-24T09:06:32;14.60;99.90
4293;DHT22;2160;51.172;6.808;2023-03-24T09:09:02;14.50;99.90
4293;DHT22;2160;51.172;6.808;2023-03-24T09:11:33;14.60;99.90
4293;DHT22;2160;51.172;6.808;2023-03-24T09:14:00;14.60;99.90
4293;DHT22;2160;51.172;6.808;2023-03-24T09:16:36;14.50;99.90
4293;DHT22;2160;51.172;6.808;2023-03-24T09:19:03;14.60;99.90
4293;DHT22;2160;51.172;6.808;2023-03-24T09:21:45;14.80;99.90
4293;DHT22;2160;51.172;6.808;2023-03-24T09:24:13;14.60;99.90
4293;DHT22;2160;51.172;6.808;2023-03-24T09:26:42;14.70;99.90
4293;DHT22;2160;51.172;6.808;2023-03-24T09:29:10;14.70;99.90
4293;DHT22;2160;51.172;6.808;2023-03-24T09:31:37;14.60;99.90
4293;DHT22;2160;51.172;6.808;2023-03-24T09:34:04;14.80;99.90
4293;DHT22;2160;51.172;6.808;2023-03-24T09:36:32;14.80;99.90
4293;DHT22;2160;51.172;6.808;2023-03-24T09:39:00;14.90;99.90
4293;DHT22;2160;51.172;6.808;2023-03-24T09:41:29;14.90;99.90
4293;DHT22;2160;51.172;6.808;2023-03-24T09:44:04;15.00;99.90
4293;DHT22;2160;51.172;6.808;2023-03-24T09:46:42;15.10;99.90
4293;DHT22;2160;51.172;6.808;2023-03-24T09:49:14;15.20;99.90
4293;DHT22;2160;51.172;6.808;2023-03-24T09:51:44;15.20;99.90
4293;DHT22;2160;51.172;6.808;2023-03-24T09:54:30;15.20;99.90
4293;DHT22;2160;51.172;6.808;2023-03-24T09:57:01;15.40;99.90
4293;DHT22;2160;51.172;6.808;2023-03-24T09:59:37;15.30;99.90
4293;DHT22;2160;51.172;6.808;2023-03-24T10:02:21;15.20;99.90
4293;DHT22;2160;51.172;6.808;2023-03-24T10:05:34;15.30;99.90
4293;DHT22;2160;51.172;6.808;2023-03-24T10:08:14;15.60;99.90
4293;DHT22;2160;51.172;6.808;2023-03-24T10:10:52;15.80;99.90
4293;DHT22;2160;51.172;6.808;2023-03-24T10:13:31;15.80;99.90
4293;DHT22;2160;51.172;6.808;2023-03-24T10:16:09;15.60;99.90
4293;DHT22;2160;51.172;6.808;2023-03-24T10:18:50;15.50;99.90
4293;DHT22;2160;51.172;6.808;2023-03-24T10:21:29;15.50;99.90
4293;DHT22;2160;51.172;6.808;2023-03-24T10:24:17;15.40;99.90
4293;DHT22;2160;51.172;6.808;2023-03-24T10:30:27;15.60;99.90
4293;DHT22;2160;51.172;6.808;2023-03-24T10:33:25;15.80;99.90
4293;DHT22;2160;51.172;6.808;2023-03-24T10:39:30;16.20;99.90
4293;DHT22;2160;51.172;6.808;2023-03-24T10:42:00;16.40;99.90
4293;DHT22;2160;51.172;6.808;2023-03-24T10:44:33;16.60;99.90
4293;DHT22;2160;51.172;6.808;2023-03-24T10:47:03;16.50;99.90
4293;DHT22;2160;51.172;6.808;2023-03-24T10:49:41;16.50;99.90
4293;DHT22;2160;51.172;6.808;2023-03-24T10:52:39;16.40;99.90
4293;DHT22;2160;51.172;6.808;2023-03-24T10:55:36;16.00;99.90
4293;DHT22;2160;51.172;6.808;2023-03-24T11:01:36;15.80;99.90
4293;DHT22;2160;51.172;6.808;2023-03-24T11:04:05;16.00;99.90
4293;DHT22;2160;51.172;6.808;2023-03-24T11:06:39;16.00;99.90
4293;DHT22;2160;51.172;6.808;2023-03-24T11:09:20;16.10;99.90
4293;DHT22;2160;51.172;6.808;2023-03-24T11:11:50;16.10;99.90
4293;DHT22;2160;51.172;6.808;2023-03-24T11:14:30;16.10;99.90
4293;DHT22;2160;51.172;6.808;2023-03-24T11:17:31;16.20;99.90
4293;DHT22;2160;51.172;6.808;2023-03-24T11:20:32;16.30;99.90
4293;DHT22;2160;51.172;6.808;2023-03-24T11:23:02;16.50;99.90
4293;DHT22;2160;51.172;6.808;2023-03-24T11:25:32;16.50;99.90
4293;DHT22;2160;51.172;6.808;2023-03-24T11:28:07;16.50;99.90
4293;DHT22;2160;51.172;6.808;2023-03-24T11:33:57;17.10;99.90
4293;DHT22;2160;51.172;6.808;2023-03-24T11:36:47;17.10;99.90
4293;DHT22;2160;51.172;6.808;2023-03-24T11:39:20;17.20;99.90
4293;DHT22;2160;51.172;6.808;2023-03-24T11:42:03;16.90;99.90
4293;DHT22;2160;51.172;6.808;2023-03-24T11:44:42;17.00;99.90
4293;DHT22;2160;51.172;6.808;2023-03-24T11:47:12;17.00;99.90
4293;DHT22;2160;51.172;6.808;2023-03-24T11:50:02;17.00;99.90
4293;DHT22;2160;51.172;6.808;2023-03-24T11:52:33;17.00;99.90
4293;DHT22;2160;51.172;6.808;2023-03-24T11:55:02;17.00;99.90
4293;DHT22;2160;51.172;6.808;2023-03-24T11:57:51;17.10;99.90
4293;DHT22;2160;51.172;6.808;2023-03-24T12:00:24;17.20;99.90
4293;DHT22;2160;51.172;6.808;2023-03-24T12:06:14;17.00;99.90
4293;DHT22;2160;51.172;6.808;2023-03-24T12:08:51;17.30;99.90
4293;DHT22;2160;51.172;6.808;2023-03-24T12:11:26;17.20;99.90
4293;DHT22;2160;51.172;6.808;2023-03-24T12:14:00;17.20;99.90
4293;DHT22;2160;51.172;6.808;2023-03-24T12:16:39;17.20;99.90
4293;DHT22;2160;51.172;6.808;2023-03-24T12:19:30;17.20;99.90
4293;DHT22;2160;51.172;6.808;2023-03-24T12:22:08;17.30;99.90
4293;DHT22;2160;51.172;6.808;2023-03-24T12:24:49;17.40;99.90
4293;DHT22;2160;51.172;6.808;2023-03-24T12:27:25;17.40;99.90
4293;DHT22;2160;51.172;6.808;2023-03-24T12:29:59;17.40;99.90
4293;DHT22;2160;51.172;6.808;2023-03-24T12:32:39;17.20;99.90
4293;DHT22;2160;51.172;6.808;2023-03-24T12:35:28;17.10;99.90
4293;DHT22;2160;51.172;6.808;2023-03-24T12:38:07;17.20;99.90
4293;DHT22;2160;51.172;6.808;2023-03-24T12:41:13;17.20;99.90
4293;DHT22;2160;51.172;6.808;2023-03-24T12:43:49;17.30;99.90
4293;DHT22;2160;51.172;6.808;2023-03-24T12:46:32;17.30;99.90
4293;DHT22;2160;51.172;6.808;2023-03-24T12:49:16;17.30;99.90
4293;DHT22;2160;51.172;6.808;2023-03-24T12:51:53;17.20;99.90
4293;DHT22;2160;51.172;6.808;2023-03-24T12:54:33;17.10;99.90
4293;DHT22;2160;51.172;6.808;2023-03-24T12:57:09;17.10;99.90
4293;DHT22;2160;51.172;6.808;2023-03-24T12:59:40;17.10;99.90
4293;DHT22;2160;51.172;6.808;2023-03-24T13:02:16;17.10;99.90
4293;DHT22;2160;51.172;6.808;2023-03-24T13:04:47;17.30;99.90
4293;DHT22;2160;51.172;6.808;2023-03-24T13:07:17;17.30;99.90
4293;DHT22;2160;51.172;6.808;2023-03-24T13:09:49;17.30;99.90
4293;DHT22;2160;51.172;6.808;2023-03-24T13:12:20;17.30;99.90
4293;DHT22;2160;51.172;6.808;2023-03-24T13:14:56;17.30;99.90
4293;DHT22;2160;51.172;6.808;2023-03-24T13:17:28;17.40;99.90
4293;DHT22;2160;51.172;6.808;2023-03-24T13:19:57;17.50;99.90
4293;DHT22;2160;51.172;6.808;2023-03-24T13:22:26;17.60;99.90
4293;DHT22;2160;51.172;6.808;2023-03-24T13:24:56;17.60;99.90
4293;DHT22;2160;51.172;6.808;2023-03-24T13:27:27;17.60;99.90
4293;DHT22;2160;51.172;6.808;2023-03-24T13:30:19;17.50;99.90
4293;DHT22;2160;51.172;6.808;2023-03-24T13:32:50;17.30;99.90
4293;DHT22;2160;51.172;6.808;2023-03-24T13:35:28;17.20;99.90
4293;DHT22;2160;51.172;6.808;2023-03-24T13:38:00;17.10;99.90
4293;DHT22;2160;51.172;6.808;2023-03-24T13:40:37;17.20;99.90
4293;DHT22;2160;51.172;6.808;2023-03-24T13:43:09;17.20;99.90
4293;DHT22;2160;51.172;6.808;2023-03-24T13:45:41;17.40;99.90
4293;DHT22;2160;51.172;6.808;2023-03-24T13:48:27;17.50;99.90
4293;DHT22;2160;51.172;6.808;2023-03-24T13:50:57;17.60;99.50
4293;DHT22;2160;51.172;6.808;2023-03-24T13:53:36;17.40;98.00
4293;DHT22;2160;51.172;6.808;2023-03-24T13:56:07;17.30;99.00
4293;DHT22;2160;51.172;6.808;2023-03-24T13:59:04;17.10;98.70
4293;DHT22;2160;51.172;6.808;2023-03-24T14:01:34;17.20;99.90
4293;DHT22;2160;51.172;6.808;2023-03-24T14:04:25;16.90;99.90
4293;DHT22;2160;51.172;6.808;2023-03-24T14:06:53;16.80;99.90
4293;DHT22;2160;51.172;6.808;2023-03-24T14:09:21;16.80;99.90
4293;DHT22;2160;51.172;6.808;2023-03-24T14:12:16;16.90;99.90
4293;DHT22;2160;51.172;6.808;2023-03-24T14:15:15;16.90;99.90
4293;DHT22;2160;51.172;6.808;2023-03-24T14:17:44;16.70;99.90
4293;DHT22;2160;51.172;6.808;2023-03-24T14:20:24;16.90;99.90
4293;DHT22;2160;51.172;6.808;2023-03-24T14:22:53;17.20;99.90
4293;DHT22;2160;51.172;6.808;2023-03-24T14:25:27;17.20;99.90
4293;DHT22;2160;51.172;6.808;2023-03-24T14:28:26;17.40;99.90
4293;DHT22;2160;51.172;6.808;2023-03-24T14:31:08;17.60;99.90
4293;DHT22;2160;51.172;6.808;2023-03-24T14:33:38;17.60;99.90
4293;DHT22;2160;51.172;6.808;2023-03-24T14:36:07;17.70;99.90
4293;DHT22;2160;51.172;6.808;2023-03-24T14:38:40;17.40;99.90
4293;DHT22;2160;51.172;6.808;2023-03-24T14:41:12;17.30;99.90
4293;DHT22;2160;51.172;6.808;2023-03-24T14:43:56;17.10;99.90
4293;DHT22;2160;51.172;6.808;2023-03-24T14:46:36;17.00;99.90
4293;DHT22;2160;51.172;6.808;2023-03-24T14:49:18;16.80;99.90
4293;DHT22;2160;51.172;6.808;2023-03-24T14:51:53;16.80;99.90
4293;DHT22;2160;51.172;6.808;2023-03-24T14:54:26;16.90;99.90
4293;DHT22;2160;51.172;6.808;2023-03-24T14:56:56;17.10;99.90
4293;DHT22;2160;51.172;6.808;2023-03-24T14:59:35;17.30;99.90
4293;DHT22;2160;51.172;6.808;2023-03-24T15:02:14;17.30;99.90
4293;DHT22;2160;51.172;6.808;2023-03-24T15:07:25;17.30;99.90
4293;DHT22;2160;51.172;6.808;2023-03-24T15:09:56;17.50;99.90
4293;DHT22;2160;51.172;6.808;2023-03-24T15:12:23;17.60;99.90
4293;DHT22;2160;51.172;6.808;2023-03-24T15:14:51;17.60;99.90
4293;DHT22;2160;51.172;6.808;2023-03-24T15:17:21;17.70;99.90
4293;DHT22;2160;51.172;6.808;2023-03-24T15:19:50;17.70;99.90
4293;DHT22;2160;51.172;6.808;2023-03-24T15:22:18;17.80;99.90
4293;DHT22;2160;51.172;6.808;2023-03-24T15:24:47;17.80;99.90
4293;DHT22;2160;51.172;6.808;2023-03-24T15:27:22;17.70;99.90
4293;DHT22;2160;51.172;6.808;2023-03-24T15:29:57;17.60;99.90
4293;DHT22;2160;51.172;6.808;2023-03-24T15:32:25;17.40;99.90
4293;DHT22;2160;51.172;6.808;2023-03-24T15:34:57;17.40;99.90
4293;DHT22;2160;51.172;6.808;2023-03-24T15:37:31;17.30;99.90
4293;DHT22;2160;51.172;6.808;2023-03-24T15:39:58;17.10;99.90
4293;DHT22;2160;51.172;6.808;2023-03-24T15:42:25;17.00;99.90
4293;DHT22;2160;51.172;6.808;2023-03-24T15:44:53;17.00;99.90
4293;DHT22;2160;51.172;6.808;2023-03-24T15:47:23;16.70;99.90
4293;DHT22;2160;51.172;6.808;2023-03-24T15:49:52;16.60;99.90
4293;DHT22;2160;51.172;6.808;2023-03-24T15:52:27;16.10;99.90
4293;DHT22;2160;51.172;6.808;2023-03-24T15:54:58;15.60;99.90
4293;DHT22;2160;51.172;6.808;2023-03-24T15:57:26;15.30;99.90
4293;DHT22;2160;51.172;6.808;2023-03-24T16:00:06;15.00;99.90
4293;DHT22;2160;51.172;6.808;2023-03-24T16:02:46;14.80;99.90
4293;DHT22;2160;51.172;6.808;2023-03-24T16:05:23;14.60;99.90
4293;DHT22;2160;51.172;6.808;2023-03-24T16:11:16;15.10;99.90
4293;DHT22;2160;51.172;6.808;2023-03-24T16:13:44;15.10;99.90
4293;DHT22;2160;51.172;6.808;2023-03-24T16:16:35;15.00;99.90
4293;DHT22;2160;51.172;6.808;2023-03-24T16:19:06;15.00;99.90
4293;DHT22;2160;51.172;6.808;2023-03-24T16:21:34;15.00;99.90
4293;DHT22;2160;51.172;6.808;2023-03-24T16:24:16;14.90;99.90
4293;DHT22;2160;51.172;6.808;2023-03-24T16:26:55;14.70;99.90
4293;DHT22;2160;51.172;6.808;2023-03-24T16:29:43;14.60;99.90
4293;DHT22;2160;51.172;6.808;2023-03-24T16:32:11;14.40;99.90
4293;DHT22;2160;51.172;6.808;2023-03-24T16:34:41;14.30;99.90
4293;DHT22;2160;51.172;6.808;2023-03-24T16:37:08;14.20;99.90
4293;DHT22;2160;51.172;6.808;2023-03-24T16:39:46;13.90;99.90
4293;DHT22;2160;51.172;6.808;2023-03-24T16:42:17;13.50;99.90
4293;DHT22;2160;51.172;6.808;2023-03-24T16:44:52;13.50;99.90
4293;DHT22;2160;51.172;6.808;2023-03-24T16:47:22;13.60;99.90
4293;DHT22;2160;51.172;6.808;2023-03-24T16:50:13;13.70;99.90
4293;DHT22;2160;51.172;6.808;2023-03-24T16:52:49;13.90;99.90
4293;DHT22;2160;51.172;6.808;2023-03-24T16:55:25;14.10;99.90
4293;DHT22;2160;51.172;6.808;2023-03-24T16:58:12;14.00;99.90
4293;DHT22;2160;51.172;6.808;2023-03-24T17:00:54;13.90;99.90
4293;DHT22;2160;51.172;6.808;2023-03-24T17:03:31;13.80;99.90
4293;DHT22;2160;51.172;6.808;2023-03-24T17:06:14;13.70;99.90
4293;DHT22;2160;51.172;6.808;2023-03-24T17:09:00;13.80;99.90
4293;DHT22;2160;51.172;6.808;2023-03-24T17:11:41;13.70;99.90
4293;DHT22;2160;51.172;6.808;2023-03-24T17:14:16;13.70;99.90
4293;DHT22;2160;51.172;6.808;2023-03-24T17:16:55;13.70;99.90
4293;DHT22;2160;51.172;6.808;2023-03-24T17:19:28;13.80;99.90
4293;DHT22;2160;51.172;6.808;2023-03-24T17:22:02;13.80;99.90
4293;DHT22;2160;51.172;6.808;2023-03-24T17:24:32;13.70;99.90
4293;DHT22;2160;51.172;6.808;2023-03-24T17:27:01;13.70;99.90
4293;DHT22;2160;51.172;6.808;2023-03-24T17:29:29;13.60;99.90
4293;DHT22;2160;51.172;6.808;2023-03-24T17:32:05;13.30;99.90
4293;DHT22;2160;51.172;6.808;2023-03-24T17:34:32;13.30;99.90
4293;DHT22;2160;51.172;6.808;2023-03-24T17:37:06;13.60;99.90
4293;DHT22;2160;51.172;6.808;2023-03-24T17:39:42;13.60;99.90
4293;DHT22;2160;51.172;6.808;2023-03-24T17:42:13;13.60;99.90
4293;DHT22;2160;51.172;6.808;2023-03-24T17:45:18;13.80;99.90
4293;DHT22;2160;51.172;6.808;2023-03-24T17:48:37;13.90;99.90
4293;DHT22;2160;51.172;6.808;2023-03-24T17:51:06;13.80;99.90
4293;DHT22;2160;51.172;6.808;2023-03-24T17:53:43;13.60;99.90
4293;DHT22;2160;51.172;6.808;2023-03-24T17:56:29;13.30;99.90
4293;DHT22;2160;51.172;6.808;2023-03-24T17:59:22;13.40;99.90
4293;DHT22;2160;51.172;6.808;2023-03-24T18:02:04;13.40;99.90
4293;DHT22;2160;51.172;6.808;2023-03-24T18:04:34;13.40;99.90
4293;DHT22;2160;51.172;6.808;2023-03-24T18:07:03;13.40;99.90
4293;DHT22;2160;51.172;6.808;2023-03-24T18:13:34;13.60;99.90
4293;DHT22;2160;51.172;6.808;2023-03-24T18:16:31;13.60;99.90
4293;DHT22;2160;51.172;6.808;2023-03-24T18:19:12;13.70;99.90
4293;DHT22;2160;51.172;6.808;2023-03-24T18:22:07;13.80;99.90
4293;DHT22;2160;51.172;6.808;2023-03-24T18:24:57;13.80;99.90
4293;DHT22;2160;51.172;6.808;2023-03-24T18:27:31;13.70;99.90
4293;DHT22;2160;51.172;6.808;2023-03-24T18:31:10;13.40;99.90
4293;DHT22;2160;51.172;6.808;2023-03-24T18:33:53;13.40;99.90
4293;DHT22;2160;51.172;6.808;2023-03-24T18:36:47;13.30;99.90
4293;DHT22;2160;51.172;6.808;2023-03-24T18:39:26;13.30;99.90
4293;DHT22;2160;51.172;6.808;2023-03-24T18:41:53;13.10;99.90
4293;DHT22;2160;51.172;6.808;2023-03-24T18:44:20;13.00;99.90
4293;DHT22;2160;51.172;6.808;2023-03-24T18:46:49;13.10;99.90
4293;DHT22;2160;51.172;6.808;2023-03-24T18:49:16;13.10;99.90
4293;DHT22;2160;51.172;6.808;2023-03-24T18:51:43;13.00;99.90
4293;DHT22;2160;51.172;6.808;2023-03-24T18:54:29;12.90;99.90
4293;DHT22;2160;51.172;6.808;2023-03-24T18:57:01;12.80;99.90
4293;DHT22;2160;51.172;6.808;2023-03-24T19:00:04;13.10;99.90
4293;DHT22;2160;51.172;6.808;2023-03-24T19:03:01;13.30;99.90
4293;DHT22;2160;51.172;6.808;2023-03-24T19:05:48;13.30;99.90
4293;DHT22;2160;51.172;6.808;2023-03-24T19:08:39;13.20;99.90
4293;DHT22;2160;51.172;6.808;2023-03-24T19:11:13;13.20;99.90
4293;DHT22;2160;51.172;6.808;2023-03-24T19:13:48;13.20;99.90
4293;DHT22;2160;51.172;6.808;2023-03-24T19:16:29;13.10;99.90
4293;DHT22;2160;51.172;6.808;2023-03-24T19:19:39;13.30;99.90
4293;DHT22;2160;51.172;6.808;2023-03-24T19:22:29;13.50;99.90
4293;DHT22;2160;51.172;6.808;2023-03-24T19:25:07;13.50;99.90
4293;DHT22;2160;51.172;6.808;2023-03-24T19:27:43;13.60;99.90
4293;DHT22;2160;51.172;6.808;2023-03-24T19:30:29;13.50;99.90
4293;DHT22;2160;51.172;6.808;2023-03-24T19:33:21;13.40;99.90
4293;DHT22;2160;51.172;6.808;2023-03-24T19:36:14;13.50;99.90
4293;DHT22;2160;51.172;6.808;2023-03-24T19:38:53;13.50;99.90
4293;DHT22;2160;51.172;6.808;2023-03-24T19:41:50;13.50;99.90
4293;DHT22;2160;51.172;6.808;2023-03-24T19:44:22;13.50;99.90
4293;DHT22;2160;51.172;6.808;2023-03-24T19:47:12;13.40;99.90
4293;DHT22;2160;51.172;6.808;2023-03-24T19:49:54;13.20;99.90
4293;DHT22;2160;51.172;6.808;2023-03-24T19:52:29;13.10;99.90
4293;DHT22;2160;51.172;6.808;2023-03-24T19:55:14;13.00;99.90
4293;DHT22;2160;51.172;6.808;2023-03-24T19:57:51;13.30;99.90
4293;DHT22;2160;51.172;6.808;2023-03-24T20:08:44;13.60;99.90
4293;DHT22;2160;51.172;6.808;2023-03-24T20:11:44;13.60;99.90
4293;DHT22;2160;51.172;6.808;2023-03-24T20:14:21;13.50;99.90
4293;DHT22;2160;51.172;6.808;2023-03-24T20:17:01;13.70;99.90
4293;DHT22;2160;51.172;6.808;2023-03-24T20:19:51;13.60;99.90
4293;DHT22;2160;51.172;6.808;2023-03-24T20:23:03;13.70;99.90
4293;DHT22;2160;51.172;6.808;2023-03-24T20:26:23;13.70;99.90
4293;DHT22;2160;51.172;6.808;2023-03-24T20:29:28;13.80;99.90
4293;DHT22;2160;51.172;6.808;2023-03-24T20:32:01;13.60;99.90
4293;DHT22;2160;51.172;6.808;2023-03-24T20:34:45;13.60;99.90
4293;DHT22;2160;51.172;6.808;2023-03-24T20:37:32;13.60;99.90
4293;DHT22;2160;51.172;6.808;2023-03-24T20:40:03;13.80;99.90
4293;DHT22;2160;51.172;6.808;2023-03-24T20:42:39;13.70;99.90
4293;DHT22;2160;51.172;6.808;2023-03-24T20:45:36;13.70;99.90
4293;DHT22;2160;51.172;6.808;2023-03-24T20:48:49;13.60;99.90
4293;DHT22;2160;51.172;6.808;2023-03-24T20:51:15;13.50;99.90
4293;DHT22;2160;51.172;6.808;2023-03-24T20:54:03;13.50;99.90
4293;DHT22;2160;51.172;6.808;2023-03-24T20:56:52;13.50;99.90
4293;DHT22;2160;51.172;6.808;2023-03-24T20:59:54;13.50;99.90
4293;DHT22;2160;51.172;6.808;2023-03-24T21:02:43;13.50;99.90
4293;DHT22;2160;51.172;6.808;2023-03-24T21:05:25;13.60;99.90
4293;DHT22;2160;51.172;6.808;2023-03-24T21:07:56;13.50;99.90
4293;DHT22;2160;51.172;6.808;2023-03-24T21:10:44;13.50;99.90
4293;DHT22;2160;51.172;6.808;2023-03-24T21:13:33;13.30;99.90
4293;DHT22;2160;51.172;6.808;2023-03-24T21:16:10;13.40;99.90
4293;DHT22;2160;51.172;6.808;2023-03-24T21:19:02;13.30;99.90
4293;DHT22;2160;51.172;6.808;2023-03-24T21:21:32;13.30;99.90
4293;DHT22;2160;51.172;6.808;2023-03-24T21:24:59;13.30;99.90
4293;DHT22;2160;51.172;6.808;2023-03-24T21:27:45;13.30;99.90
4293;DHT22;2160;51.172;6.808;2023-03-24T21:30:40;13.30;99.90
4293;DHT22;2160;51.172;6.808;2023-03-24T21:37:37;13.20;99.90
4293;DHT22;2160;51.172;6.808;2023-03-24T23:42:34;12.70;99.90
4293;DHT22;2160;51.172;6.808;2023-03-24T23:45:36;12.50;99.90
4293;DHT22;2160;51.172;6.808;2023-03-24T23:48:40;12.60;99.90
4293;DHT22;2160;51.172;6.808;2023-03-24T23:51:18;12.50;99.90
4293;DHT22;2160;51.172;6.808;2023-03-24T23:54:00;12.50;99.90
4293;DHT22;2160;51.172;6.808;2023-03-24T23:57:12;12.40;99.90
4293;DHT22;2160;51.172;6.808;2023-03-24T23:59:58;12.50;99.90
